createdAt,value
2019-05-20T00:02:02.389Z,18.57
2019-05-20T00:05:10.484Z,20.20
2019-05-20T00:08:18.577Z,17.63
2019-05-20T00:11:26.665Z,16.90
2019-05-20T00:14:34.704Z,15.90
2019-05-20T00:17:42.814Z,17.20
2019-05-20T00:20:50.821Z,23.60
2019-05-20T00:23:58.849Z,17.33
2019-05-20T00:27:06.877Z,17.93
2019-05-20T00:30:14.990Z,17.80
2019-05-20T00:33:23.009Z,16.93
2019-05-20T00:36:31.097Z,20.30
2019-05-20T00:39:39.133Z,17.97
2019-05-20T00:42:47.151Z,19.00
2019-05-20T00:45:47.612Z,20.17
2019-05-20T00:48:48.101Z,17.80
2019-05-20T00:51:48.619Z,23.07
2019-05-20T00:54:49.406Z,18.80
2019-05-20T00:57:49.885Z,18.67
2019-05-20T01:00:50.765Z,18.83
2019-05-20T01:03:51.557Z,17.30
2019-05-20T01:06:52.074Z,18.50
2019-05-20T01:09:53.013Z,19.87
2019-05-20T01:12:53.789Z,21.90
2019-05-20T01:15:54.323Z,18.30
2019-05-20T01:18:55.082Z,21.47
2019-05-20T01:21:55.709Z,21.50
2019-05-20T01:24:56.696Z,20.00
2019-05-20T01:27:57.424Z,20.17
2019-05-20T01:30:57.952Z,20.47
2019-05-20T01:33:58.665Z,23.27
2019-05-20T01:36:59.326Z,20.23
2019-05-20T01:40:00.001Z,21.60
2019-05-20T01:43:00.594Z,21.33
2019-05-20T01:46:01.251Z,21.90
2019-05-20T01:49:01.624Z,19.93
2019-05-20T01:52:02.253Z,24.77
2019-05-20T01:55:02.731Z,22.17
2019-05-20T01:58:03.670Z,20.13
2019-05-20T02:01:04.165Z,22.73
2019-05-20T02:04:04.702Z,21.60
2019-05-20T02:06:53.981Z,26.50
2019-05-20T02:10:02.009Z,22.47
2019-05-20T02:13:10.173Z,24.17
2019-05-20T02:19:17.107Z,20.40
2019-05-20T02:22:25.145Z,22.40
2019-05-20T02:25:33.178Z,21.97
2019-05-20T02:28:41.196Z,25.23
2019-05-20T02:31:49.226Z,21.23
2019-05-20T02:34:57.245Z,20.77
2019-05-20T02:38:05.274Z,22.57
2019-05-20T02:41:13.380Z,22.50
2019-05-20T02:44:14.633Z,23.53
2019-05-20T02:47:15.390Z,23.73
2019-05-20T02:50:16.262Z,23.30
2019-05-20T02:53:17.220Z,26.40
2019-05-20T02:56:18.114Z,24.70
2019-05-20T02:59:18.973Z,23.33
2019-05-20T03:02:19.786Z,24.57
2019-05-20T03:05:20.479Z,22.80
2019-05-20T03:08:21.237Z,30.07
2019-05-20T03:11:22.239Z,24.23
2019-05-20T03:14:23.056Z,23.47
2019-05-20T03:17:23.939Z,27.43
2019-05-20T03:20:24.754Z,26.70
2019-05-20T03:23:25.653Z,27.17
2019-05-20T03:26:26.387Z,25.63
2019-05-20T03:29:27.347Z,24.23
2019-05-20T03:32:28.003Z,26.03
2019-05-20T03:35:28.744Z,24.13
2019-05-20T03:38:29.648Z,23.80
2019-05-20T03:41:30.318Z,23.97
2019-05-20T03:44:31.628Z,26.23
2019-05-20T03:47:32.250Z,24.17
2019-05-20T03:50:32.779Z,25.83
2019-05-20T03:53:33.543Z,27.70
2019-05-20T03:56:34.270Z,28.87
2019-05-20T03:59:34.955Z,27.90
2019-05-20T04:02:35.574Z,27.47
2019-05-20T04:05:36.031Z,26.83
2019-05-20T04:08:36.818Z,34.18
2019-05-20T04:11:37.552Z,30.27
2019-05-20T04:14:38.137Z,32.53
2019-05-20T04:17:37.278Z,38.60
2019-05-20T04:20:45.295Z,36.00
2019-05-20T04:23:53.471Z,70.37
2019-05-20T04:27:01.556Z,53.57
2019-05-20T04:30:09.843Z,109.70
2019-05-20T04:33:17.954Z,61.67
2019-05-20T04:36:26.052Z,80.50
2019-05-20T04:39:34.162Z,42.50
2019-05-20T04:42:42.266Z,78.23
2019-05-20T04:45:43.181Z,39.03
2019-05-20T04:48:32.061Z,55.83
2019-05-20T04:51:40.074Z,75.50
2019-05-20T04:54:48.105Z,76.33
2019-05-20T04:57:56.125Z,61.50
2019-05-20T05:01:04.271Z,56.23
2019-05-20T05:04:12.306Z,59.67
2019-05-20T05:07:20.321Z,73.10
2019-05-20T05:10:28.362Z,47.57
2019-05-20T05:13:36.393Z,45.37
2019-05-20T05:16:44.414Z,57.97
2019-05-20T05:19:52.625Z,55.83
2019-05-20T05:23:00.633Z,54.17
2019-05-20T05:26:08.666Z,35.83
2019-05-20T05:29:16.774Z,34.77
2019-05-20T05:32:44.682Z,44.03
2019-05-20T05:35:53.983Z,55.37
2019-05-20T05:39:24.015Z,55.77
2019-05-20T05:42:32.038Z,44.97
2019-05-20T05:45:33.326Z,65.47
2019-05-20T05:48:34.070Z,42.57
2019-05-20T05:51:35.072Z,46.47
2019-05-20T05:54:35.869Z,42.70
2019-05-20T05:57:36.369Z,42.27
2019-05-20T06:00:37.696Z,38.13
2019-05-20T06:03:38.473Z,75.60
2019-05-20T06:06:39.038Z,48.23
2019-05-20T06:09:39.751Z,56.47
2019-05-20T06:12:40.475Z,50.20
2019-05-20T06:15:41.281Z,44.83
2019-05-20T06:18:42.287Z,42.20
2019-05-20T06:21:43.051Z,36.83
2019-05-20T06:24:43.741Z,44.03
2019-05-20T06:27:44.410Z,43.20
2019-05-20T06:30:45.221Z,36.47
2019-05-20T06:33:45.913Z,36.10
2019-05-20T06:36:48.926Z,35.80
2019-05-20T06:39:51.282Z,44.37
2019-05-20T06:42:51.876Z,36.17
2019-05-20T06:45:52.302Z,35.53
2019-05-20T06:48:52.794Z,35.50
2019-05-20T06:51:53.766Z,37.30
2019-05-20T06:54:54.666Z,36.13
2019-05-20T06:57:55.421Z,38.20
2019-05-20T07:00:56.313Z,38.57
2019-05-20T07:03:56.929Z,33.83
2019-05-20T07:06:57.723Z,36.50
2019-05-20T07:09:58.549Z,36.33
2019-05-20T07:12:59.316Z,36.10
2019-05-20T07:16:00.423Z,32.77
2019-05-20T07:19:01.152Z,35.50
2019-05-20T07:22:01.835Z,38.53
2019-05-20T07:25:02.555Z,38.07
2019-05-20T07:28:03.277Z,45.70
2019-05-20T07:31:03.933Z,48.53
2019-05-20T07:34:04.755Z,40.07
2019-05-20T07:37:05.548Z,41.67
2019-05-20T07:40:06.450Z,41.97
2019-05-20T07:43:07.273Z,43.20
2019-05-20T07:46:08.283Z,44.17
2019-05-20T07:49:09.397Z,48.93
2019-05-20T07:52:10.826Z,46.67
2019-05-20T07:55:11.609Z,45.57
2019-05-20T07:58:12.513Z,41.07
2019-05-20T08:01:13.433Z,43.43
2019-05-20T08:04:14.472Z,43.30
2019-05-20T08:07:27.601Z,46.70
2019-05-20T08:10:18.338Z,43.37
2019-05-20T08:13:19.054Z,47.03
2019-05-20T08:16:19.696Z,44.23
2019-05-20T08:19:20.694Z,46.77
2019-05-20T08:22:21.601Z,48.23
2019-05-20T08:25:22.437Z,46.13
2019-05-20T08:28:23.369Z,49.40
2019-05-20T08:31:24.267Z,45.13
2019-05-20T08:34:25.656Z,51.03
2019-05-20T08:37:42.110Z,42.07
2019-05-20T08:40:29.281Z,46.53
2019-05-20T08:43:30.305Z,48.10
2019-05-20T08:46:31.003Z,51.00
2019-05-20T08:49:31.677Z,50.13
2019-05-20T08:52:32.464Z,52.30
2019-05-20T08:55:33.293Z,45.97
2019-05-20T08:58:33.889Z,51.73
2019-05-20T09:01:34.724Z,48.63
2019-05-20T09:04:35.417Z,54.43
2019-05-20T09:07:35.862Z,54.23
2019-05-20T09:10:39.487Z,55.00
2019-05-20T09:13:39.349Z,54.23
2019-05-20T09:16:40.054Z,57.40
2019-05-20T09:19:40.822Z,60.73
2019-05-20T09:22:41.662Z,58.60
2019-05-20T09:25:42.606Z,65.27
2019-05-20T09:28:43.609Z,55.97
2019-05-20T09:31:44.089Z,54.80
2019-05-20T09:34:44.875Z,48.67
2019-05-20T09:37:45.693Z,47.70
2019-05-20T09:40:46.513Z,49.60
2019-05-20T09:43:47.441Z,45.33
2019-05-20T09:46:48.427Z,49.80
2019-05-20T09:49:48.948Z,47.00
2019-05-20T09:52:49.742Z,49.10
2019-05-20T09:55:50.529Z,44.20
2019-05-20T09:58:51.297Z,46.43
2019-05-20T10:01:52.359Z,46.93
2019-05-20T10:04:53.010Z,43.57
2019-05-20T10:07:54.049Z,42.23
2019-05-20T10:10:59.238Z,38.27
2019-05-20T10:13:57.536Z,38.80
2019-05-20T10:16:58.477Z,37.30
2019-05-20T10:19:59.302Z,37.90
2019-05-20T10:23:00.093Z,36.73
2019-05-20T10:26:00.637Z,38.27
2019-05-20T10:29:01.194Z,34.87
2019-05-20T10:32:01.790Z,35.03
2019-05-20T10:35:02.619Z,34.77
2019-05-20T10:38:03.545Z,35.10
2019-05-20T10:41:04.361Z,35.93
2019-05-20T10:44:05.343Z,33.53
2019-05-20T10:47:06.037Z,36.83
2019-05-20T10:50:06.886Z,34.13
2019-05-20T10:53:08.098Z,34.33
2019-05-20T10:56:08.543Z,33.13
2019-05-20T10:59:11.975Z,31.80
2019-05-20T11:02:12.013Z,32.87
2019-05-20T11:05:12.705Z,34.90
2019-05-20T11:08:13.402Z,37.70
2019-05-20T11:11:14.712Z,37.80
2019-05-20T11:14:15.786Z,34.17
2019-05-20T11:17:16.382Z,33.97
2019-05-20T11:20:16.909Z,36.63
2019-05-20T11:23:17.545Z,37.63
2019-05-20T11:26:18.233Z,35.07
2019-05-20T11:29:19.098Z,35.93
2019-05-20T11:32:19.810Z,37.27
2019-05-20T11:35:20.772Z,36.53
2019-05-20T11:38:21.705Z,39.80
2019-05-20T11:41:51.287Z,37.30
2019-05-20T11:44:25.204Z,37.77
2019-05-20T11:47:25.922Z,37.87
2019-05-20T11:50:26.594Z,39.67
2019-05-20T11:53:27.503Z,41.03
2019-05-20T11:56:28.122Z,41.70
2019-05-20T11:59:29.073Z,43.20
2019-05-20T12:02:29.787Z,41.57
2019-05-20T12:05:30.506Z,39.77
2019-05-20T12:08:31.190Z,43.23
2019-05-20T12:11:32.007Z,42.50
2019-05-20T12:14:32.767Z,41.50
2019-05-20T12:17:33.428Z,45.93
2019-05-20T12:20:34.221Z,43.93
2019-05-20T12:23:35.346Z,42.83
2019-05-20T12:26:36.094Z,42.00
2019-05-20T12:29:36.655Z,42.80
2019-05-20T12:32:36.996Z,40.93
2019-05-20T12:35:37.629Z,42.67
2019-05-20T12:38:38.428Z,41.80
2019-05-20T12:41:39.135Z,41.00
2019-05-20T12:44:39.857Z,37.33
2019-05-20T12:47:40.721Z,37.00
2019-05-20T12:50:41.353Z,30.00
2019-05-20T12:53:42.094Z,28.20
2019-05-20T12:56:43.097Z,29.30
2019-05-20T12:59:43.851Z,31.60
2019-05-20T13:02:44.660Z,28.43
2019-05-20T13:05:45.202Z,28.30
2019-05-20T13:08:46.347Z,28.77
2019-05-20T13:11:46.834Z,29.40
2019-05-20T13:14:47.493Z,27.73
2019-05-20T13:17:48.269Z,26.43
2019-05-20T13:20:49.034Z,24.90
2019-05-20T13:23:50.313Z,26.27
2019-05-20T13:26:50.897Z,23.23
2019-05-20T13:29:51.642Z,22.23
2019-05-20T13:32:52.250Z,20.73
2019-05-20T13:35:53.053Z,22.57
2019-05-20T13:38:53.737Z,22.77
2019-05-20T13:41:54.378Z,22.43
2019-05-20T13:44:55.451Z,20.90
2019-05-20T13:47:56.181Z,19.50
2019-05-20T13:53:21.911Z,22.53
2019-05-20T13:56:22.650Z,20.33
2019-05-20T13:59:23.681Z,18.23
2019-05-20T14:02:24.586Z,17.90
2019-05-20T14:05:25.396Z,17.23
2019-05-20T14:08:26.360Z,17.10
2019-05-20T14:11:34.751Z,18.97
2019-05-20T14:14:30.026Z,18.63
2019-05-20T14:17:30.541Z,19.47
2019-05-20T14:20:31.293Z,16.90
2019-05-20T14:23:32.226Z,15.00
2019-05-20T14:26:32.723Z,14.73
2019-05-20T14:29:33.566Z,13.97
2019-05-20T14:32:34.142Z,14.70
2019-05-20T14:35:34.862Z,13.57
2019-05-20T14:38:35.449Z,13.10
2019-05-20T14:41:35.878Z,12.87
2019-05-20T14:44:36.478Z,15.30
2019-05-20T14:47:36.860Z,12.63
2019-05-20T14:50:37.602Z,13.07
2019-05-20T14:53:38.255Z,14.67
2019-05-20T14:56:38.814Z,13.00
2019-05-20T14:59:39.403Z,10.83
2019-05-20T15:02:39.974Z,11.40
2019-05-20T15:05:40.860Z,10.73
2019-05-20T15:08:42.191Z,11.57
2019-05-20T15:11:42.817Z,10.63
2019-05-20T15:14:43.913Z,12.07
2019-05-20T15:17:44.538Z,13.33
2019-05-20T15:20:45.182Z,12.77
2019-05-20T15:23:46.206Z,11.70
2019-05-20T15:26:47.138Z,11.10
2019-05-20T15:29:48.158Z,11.47
2019-05-20T15:32:48.601Z,14.03
2019-05-20T15:35:49.379Z,11.43
2019-05-20T15:38:50.051Z,12.30
2019-05-20T15:41:50.897Z,11.63
2019-05-20T15:44:51.885Z,12.30
2019-05-20T15:47:52.545Z,16.40
2019-05-20T15:50:53.353Z,12.63
2019-05-20T15:53:54.165Z,12.57
2019-05-20T15:56:54.880Z,10.27
2019-05-20T15:59:55.526Z,13.73
2019-05-20T16:02:56.407Z,11.03
2019-05-20T16:05:59.749Z,11.10
2019-05-20T16:08:59.817Z,11.63
2019-05-20T16:12:00.479Z,11.63
2019-05-20T16:14:51.434Z,14.37
2019-05-20T16:17:59.013Z,12.67
2019-05-20T16:21:07.197Z,11.50
2019-05-20T16:24:15.213Z,13.23
2019-05-20T16:27:23.250Z,11.13
2019-05-20T16:30:31.281Z,15.93
2019-05-20T16:33:39.370Z,10.83
2019-05-20T16:36:47.408Z,10.07
2019-05-20T16:39:55.835Z,10.17
2019-05-20T16:43:03.905Z,10.90
2019-05-20T16:46:04.822Z,9.13
2019-05-20T16:49:05.337Z,11.97
2019-05-20T16:52:06.214Z,10.53
2019-05-20T16:55:06.798Z,10.17
2019-05-20T16:58:07.538Z,9.10
2019-05-20T17:01:08.251Z,9.37
2019-05-20T17:04:09.280Z,11.73
2019-05-20T17:07:10.255Z,12.43
2019-05-20T17:10:10.916Z,14.03
2019-05-20T17:13:11.706Z,15.17
2019-05-20T17:16:12.449Z,14.67
2019-05-20T17:19:13.070Z,13.23
2019-05-20T17:22:13.815Z,16.63
2019-05-20T17:25:14.525Z,14.20
2019-05-20T17:28:15.304Z,16.73
2019-05-20T17:31:16.088Z,21.00
2019-05-20T17:34:16.890Z,21.13
2019-05-20T17:37:17.961Z,20.97
2019-05-20T17:40:18.797Z,21.53
2019-05-20T17:43:20.261Z,23.20
2019-05-20T17:46:21.402Z,23.90
2019-05-20T17:49:21.842Z,24.67
2019-05-20T17:52:22.253Z,26.97
2019-05-20T17:55:22.852Z,27.00
2019-05-20T17:58:23.521Z,28.07
2019-05-20T18:01:24.394Z,27.13
2019-05-20T18:04:25.054Z,28.83
2019-05-20T18:07:25.401Z,25.97
2019-05-20T18:10:25.990Z,29.87
2019-05-20T18:13:26.703Z,29.70
2019-05-20T18:16:27.338Z,27.93
2019-05-20T18:19:27.989Z,84.17
2019-05-20T18:22:28.924Z,31.77
2019-05-20T18:25:29.553Z,29.37
2019-05-20T18:28:30.633Z,28.33
2019-05-20T18:31:32.994Z,27.10
2019-05-20T18:34:34.302Z,26.97
2019-05-20T18:37:34.718Z,25.50
2019-05-20T18:40:35.601Z,26.33
2019-05-20T18:43:36.353Z,38.50
2019-05-20T18:46:36.846Z,33.60
2019-05-20T18:49:41.109Z,26.60
2019-05-20T18:52:40.279Z,30.90
2019-05-20T18:55:41.093Z,39.70
2019-05-20T18:58:41.901Z,26.70
2019-05-20T19:01:55.833Z,26.77
2019-05-20T19:04:45.500Z,29.20
2019-05-20T19:07:46.928Z,26.00
2019-05-20T19:10:47.702Z,27.15
2019-05-20T19:13:48.682Z,27.60
2019-05-20T19:16:49.347Z,25.10
2019-05-20T19:19:50.131Z,22.93
2019-05-20T19:22:50.673Z,24.90
2019-05-20T19:25:51.372Z,25.60
2019-05-20T19:28:52.080Z,24.27
2019-05-20T19:32:01.500Z,26.50
2019-05-20T19:34:55.713Z,26.23
2019-05-20T19:37:56.601Z,30.33
2019-05-20T19:40:57.485Z,32.60
2019-05-20T19:43:58.325Z,24.63
2019-05-20T19:46:59.253Z,25.90
2019-05-20T19:49:59.807Z,25.87
2019-05-20T19:53:00.499Z,23.23
2019-05-20T19:56:01.406Z,25.53
2019-05-20T19:59:01.920Z,26.73
2019-05-20T20:02:16.385Z,27.40
2019-05-20T20:05:06.018Z,26.87
2019-05-20T20:08:06.493Z,25.40
2019-05-20T20:11:07.186Z,29.10
2019-05-20T20:14:07.970Z,25.93
2019-05-20T20:17:08.469Z,25.43
2019-05-20T20:20:09.299Z,26.20
2019-05-20T20:23:10.544Z,25.17
2019-05-20T20:26:11.301Z,27.97
2019-05-20T20:29:12.034Z,24.40
2019-05-20T20:32:12.644Z,23.10
2019-05-20T20:35:13.869Z,24.90
2019-05-20T20:38:14.419Z,24.07
2019-05-20T20:41:15.118Z,25.23
2019-05-20T20:44:15.796Z,24.13
2019-05-20T20:47:16.146Z,25.83
2019-05-20T20:50:16.866Z,23.47
2019-05-20T20:53:17.420Z,22.10
2019-05-20T20:56:25.035Z,23.97
2019-05-20T20:59:20.766Z,25.93
2019-05-20T21:02:21.586Z,25.77
2019-05-20T21:05:22.478Z,24.33
2019-05-20T21:08:23.053Z,25.90
2019-05-20T21:11:23.601Z,20.60
2019-05-20T21:14:24.338Z,22.13
2019-05-20T21:17:25.069Z,23.00
2019-05-20T21:20:25.745Z,20.83
2019-05-20T21:23:26.513Z,26.20
2019-05-20T21:26:27.379Z,22.87
2019-05-20T21:29:28.253Z,23.00
2019-05-20T21:32:28.890Z,22.97
2019-05-20T21:35:29.434Z,24.77
2019-05-20T21:38:30.164Z,23.50
2019-05-20T21:41:30.926Z,26.37
2019-05-20T21:44:31.641Z,27.43
2019-05-20T21:47:32.446Z,23.90
2019-05-20T21:50:33.154Z,21.67
2019-05-20T21:53:33.841Z,23.23
2019-05-20T21:56:34.721Z,23.23
2019-05-20T21:59:35.745Z,27.27
2019-05-20T22:02:36.366Z,23.47
2019-05-20T22:05:37.129Z,23.80
2019-05-20T22:08:37.986Z,22.27
2019-05-20T22:11:38.858Z,26.83
2019-05-20T22:14:39.640Z,24.30
2019-05-20T22:17:40.556Z,24.17
2019-05-20T22:20:41.349Z,22.83
2019-05-20T22:26:56.543Z,24.93
2019-05-20T22:29:56.971Z,24.77
2019-05-20T22:32:58.030Z,26.70
2019-05-20T22:35:58.757Z,24.20
2019-05-20T22:38:59.406Z,22.73
2019-05-20T22:42:00.050Z,24.93
2019-05-20T22:45:00.548Z,24.37
2019-05-20T22:48:01.365Z,23.87
2019-05-20T22:51:01.817Z,26.17
2019-05-20T22:54:02.549Z,24.37
2019-05-20T22:57:03.274Z,27.90
2019-05-20T23:00:03.970Z,24.30
2019-05-20T23:03:04.489Z,27.80
2019-05-20T23:06:04.848Z,26.00
2019-05-20T23:09:05.996Z,28.87
2019-05-20T23:12:06.883Z,27.63
2019-05-20T23:15:07.635Z,30.37
2019-05-20T23:18:08.122Z,24.70
2019-05-20T23:21:09.021Z,27.17
2019-05-20T23:24:09.725Z,25.53
2019-05-20T23:27:10.446Z,26.27
2019-05-20T23:30:11.426Z,27.07
2019-05-20T23:33:11.955Z,28.93
2019-05-20T23:36:12.611Z,27.50
2019-05-20T23:39:13.189Z,29.50
2019-05-20T23:42:13.598Z,26.13
2019-05-20T23:45:14.433Z,25.77
2019-05-20T23:48:15.250Z,27.93
2019-05-20T23:51:16.153Z,29.83
2019-05-20T23:54:16.840Z,26.83
2019-05-20T23:57:17.562Z,27.30
